createdAt,value
2023-03-25T00:01:42.141Z,2.10
2023-03-25T00:04:10.517Z,1.80
2023-03-25T00:06:39.329Z,1.60
2023-03-25T00:09:08.429Z,2.30
2023-03-25T00:11:37.838Z,2.70
2023-03-25T00:14:06.718Z,2.40
2023-03-25T00:16:41.795Z,2.80
2023-03-25T00:19:10.210Z,2.60
2023-03-25T00:21:40.015Z,2.00
2023-03-25T00:24:12.565Z,2.50
2023-03-25T00:26:42.905Z,1.70
2023-03-25T00:29:11.397Z,2.50
2023-03-25T00:31:42.572Z,2.40
2023-03-25T00:34:14.626Z,2.90
2023-03-25T00:36:49.117Z,2.50
2023-03-25T00:39:18.523Z,1.70
2023-03-25T00:41:48.533Z,3.00
2023-03-25T00:44:18.962Z,2.40
2023-03-25T00:46:47.894Z,2.30
2023-03-25T00:49:25.234Z,2.90
2023-03-25T00:51:56.900Z,1.40
2023-03-25T00:54:27.726Z,2.50
2023-03-25T00:56:56.503Z,3.50
2023-03-25T00:59:25.096Z,2.60
2023-03-25T01:01:56.450Z,1.90
2023-03-25T01:04:25.232Z,2.50
2023-03-25T01:06:55.251Z,2.50
2023-03-25T01:09:26.494Z,3.00
2023-03-25T01:11:56.302Z,3.40
2023-03-25T01:14:27.546Z,2.60
2023-03-25T01:16:55.833Z,2.50
2023-03-25T01:19:25.528Z,3.20
2023-03-25T01:22:03.634Z,3.70
2023-03-25T01:24:32.324Z,1.90
2023-03-25T01:27:00.800Z,3.00
2023-03-25T01:29:30.750Z,3.50
2023-03-25T01:31:59.402Z,5.00
2023-03-25T01:34:27.882Z,3.20
2023-03-25T01:36:56.666Z,4.40
2023-03-25T01:39:25.909Z,3.00
2023-03-25T01:41:55.455Z,1.80
2023-03-25T01:44:25.519Z,3.40
2023-03-25T01:46:56.374Z,2.70
2023-03-25T01:49:31.398Z,3.10
2023-03-25T01:52:07.256Z,4.50
2023-03-25T01:54:37.628Z,2.90
2023-03-25T01:57:06.890Z,2.20
2023-03-25T01:59:35.446Z,3.50
2023-03-25T02:02:08.647Z,2.70
2023-03-25T02:04:46.399Z,2.70
2023-03-25T02:07:16.826Z,3.60
2023-03-25T02:09:45.406Z,2.20
2023-03-25T02:12:14.190Z,2.80
2023-03-25T02:14:46.153Z,2.30
2023-03-25T02:17:33.523Z,1.20
2023-03-25T02:20:36.463Z,1.60
2023-03-25T02:23:15.003Z,2.20
2023-03-25T02:26:06.120Z,1.80
2023-03-25T02:28:39.583Z,1.60
2023-03-25T02:31:29.706Z,1.80
2023-03-25T02:34:09.007Z,2.00
2023-03-25T02:37:06.118Z,1.70
2023-03-25T02:39:43.209Z,2.30
2023-03-25T02:42:11.616Z,2.40
2023-03-25T02:44:42.507Z,1.60
2023-03-25T02:47:14.880Z,1.90
2023-03-25T02:49:55.938Z,1.20
2023-03-25T02:52:28.855Z,1.40
2023-03-25T02:55:02.073Z,2.40
2023-03-25T02:57:32.642Z,2.70
2023-03-25T03:00:08.073Z,2.00
2023-03-25T03:02:50.815Z,2.90
2023-03-25T03:05:22.412Z,2.80
2023-03-25T03:08:14.968Z,2.80
2023-03-25T03:11:06.993Z,3.80
2023-03-25T03:13:46.628Z,4.30
2023-03-25T03:16:22.020Z,3.20
2023-03-25T03:19:05.500Z,2.80
2023-03-25T03:21:51.695Z,3.50
2023-03-25T03:27:15.111Z,2.10
2023-03-25T03:29:51.337Z,2.70
2023-03-25T03:32:30.928Z,3.20
2023-03-25T03:35:04.479Z,1.80
2023-03-25T03:37:41.831Z,2.20
2023-03-25T03:40:14.208Z,2.60
2023-03-25T03:42:50.860Z,4.00
2023-03-25T03:45:22.571Z,3.00
2023-03-25T03:47:52.921Z,3.30
2023-03-25T03:50:25.502Z,2.40
2023-03-25T03:53:04.027Z,3.90
2023-03-25T03:55:40.342Z,4.30
2023-03-25T03:58:16.410Z,3.50
2023-03-25T04:01:09.946Z,3.10
2023-03-25T04:03:45.333Z,2.40
2023-03-25T04:06:13.573Z,1.80
2023-03-25T04:08:51.904Z,1.60
2023-03-25T04:11:23.157Z,1.80
2023-03-25T04:13:52.410Z,3.00
2023-03-25T04:16:20.870Z,3.00
2023-03-25T04:18:53.878Z,3.30
2023-03-25T04:21:25.565Z,1.60
2023-03-25T04:23:53.792Z,2.50
2023-03-25T04:26:22.035Z,2.40
2023-03-25T04:28:52.939Z,2.50
2023-03-25T04:31:21.968Z,1.80
2023-03-25T04:33:50.954Z,1.40
2023-03-25T04:36:20.275Z,1.70
2023-03-25T04:38:48.805Z,2.00
2023-03-25T04:41:23.345Z,1.40
2023-03-25T04:43:51.798Z,3.10
2023-03-25T04:46:20.667Z,1.90
2023-03-25T04:56:24.545Z,3.40
2023-03-25T04:58:53.454Z,4.10
2023-03-25T05:01:24.675Z,4.10
2023-03-25T05:03:53.172Z,4.30
2023-03-25T05:06:26.291Z,3.70
2023-03-25T05:08:56.425Z,3.30
2023-03-25T05:11:24.524Z,3.10
2023-03-25T05:13:57.864Z,2.90
2023-03-25T05:16:26.832Z,3.40
2023-03-25T05:18:55.196Z,1.80
2023-03-25T05:21:31.863Z,2.70
2023-03-25T05:24:01.840Z,2.30
2023-03-25T05:26:34.562Z,1.80
2023-03-25T05:29:21.270Z,2.00
2023-03-25T05:31:49.657Z,1.90
2023-03-25T05:34:20.771Z,2.30
2023-03-25T05:36:49.989Z,1.50
2023-03-25T05:39:20.824Z,2.30
2023-03-25T05:41:50.636Z,2.00
2023-03-25T05:44:20.341Z,2.30
2023-03-25T05:46:49.349Z,1.50
2023-03-25T05:49:17.591Z,2.40
2023-03-25T05:51:54.398Z,1.50
2023-03-25T05:54:24.741Z,1.10
2023-03-25T05:56:53.255Z,2.80
2023-03-25T05:59:22.077Z,3.20
2023-03-25T06:01:50.586Z,2.40
2023-03-25T06:04:22.081Z,3.10
2023-03-25T06:06:51.726Z,2.80
2023-03-25T06:09:20.394Z,2.40
2023-03-25T06:11:53.791Z,1.40
2023-03-25T06:14:25.759Z,2.20
2023-03-25T06:16:56.924Z,2.30
2023-03-25T06:19:26.646Z,2.60
2023-03-25T06:22:01.020Z,1.90
2023-03-25T06:24:37.910Z,2.60
2023-03-25T06:27:07.504Z,3.00
2023-03-25T06:29:39.010Z,2.30
2023-03-25T06:32:07.638Z,2.20
2023-03-25T06:34:35.962Z,3.50
2023-03-25T06:37:05.213Z,2.00
2023-03-25T06:39:34.203Z,2.30
2023-03-25T06:42:07.426Z,1.70
2023-03-25T06:44:54.324Z,2.60
2023-03-25T06:47:39.984Z,2.40
2023-03-25T06:50:09.089Z,2.70
2023-03-25T06:52:37.886Z,2.10
2023-03-25T06:55:07.765Z,1.70
2023-03-25T06:57:36.370Z,3.00
2023-03-25T07:00:06.862Z,2.60
2023-03-25T07:02:48.415Z,2.40
2023-03-25T07:05:16.965Z,2.80
2023-03-25T07:07:45.867Z,3.60
2023-03-25T07:10:15.560Z,3.90
2023-03-25T07:12:43.940Z,4.10
2023-03-25T07:15:17.117Z,4.10
2023-03-25T07:17:49.515Z,2.90
2023-03-25T07:20:18.097Z,2.50
2023-03-25T07:22:50.718Z,2.20
2023-03-25T07:25:19.145Z,3.90
2023-03-25T07:27:53.045Z,3.50
2023-03-25T07:30:22.270Z,4.80
2023-03-25T07:32:51.031Z,5.90
2023-03-25T07:35:20.495Z,4.20
2023-03-25T07:37:49.424Z,2.80
2023-03-25T07:40:18.109Z,3.90
2023-03-25T07:42:49.966Z,2.30
2023-03-25T07:45:23.412Z,2.10
2023-03-25T07:47:55.636Z,2.10
2023-03-25T07:50:26.072Z,2.80
2023-03-25T07:52:55.598Z,1.90
2023-03-25T07:55:24.340Z,2.80
2023-03-25T07:57:52.733Z,1.30
2023-03-25T08:00:27.020Z,1.60
2023-03-25T08:02:56.589Z,2.00
2023-03-25T08:05:28.080Z,2.10
2023-03-25T08:08:00.463Z,1.70
2023-03-25T08:10:29.233Z,2.20
2023-03-25T08:13:03.922Z,3.30
2023-03-25T08:15:34.956Z,2.10
2023-03-25T08:18:03.927Z,2.40
2023-03-25T08:20:39.247Z,4.90
2023-03-25T08:23:10.770Z,2.30
2023-03-25T08:25:39.249Z,1.90
2023-03-25T08:28:08.604Z,2.60
2023-03-25T08:30:38.560Z,2.30
2023-03-25T08:33:07.549Z,3.00
2023-03-25T08:35:56.715Z,2.60
2023-03-25T08:38:25.842Z,2.30
2023-03-25T08:40:56.026Z,3.10
2023-03-25T08:43:27.819Z,2.20
2023-03-25T08:45:59.491Z,3.00
2023-03-25T08:48:27.953Z,2.60
2023-03-25T08:50:59.488Z,2.40
2023-03-25T08:53:28.218Z,4.10
2023-03-25T08:55:57.428Z,4.10
2023-03-25T08:58:26.072Z,4.80
2023-03-25T09:00:58.306Z,3.20
2023-03-25T09:03:27.564Z,2.80
2023-03-25T09:05:59.416Z,3.00
2023-03-25T09:08:28.029Z,2.70
2023-03-25T09:10:56.971Z,1.70
2023-03-25T09:13:28.030Z,3.70
2023-03-25T09:15:58.878Z,2.80
2023-03-25T09:18:28.348Z,3.50
2023-03-25T09:21:00.541Z,2.10
2023-03-25T09:23:29.210Z,3.10
2023-03-25T09:26:06.681Z,2.10
2023-03-25T09:28:35.482Z,2.00
2023-03-25T09:31:10.261Z,2.00
2023-03-25T09:33:38.998Z,2.30
2023-03-25T09:36:08.451Z,3.90
2023-03-25T09:38:39.442Z,3.00
2023-03-25T09:41:26.984Z,2.40
2023-03-25T09:43:59.127Z,2.30
2023-03-25T09:46:27.549Z,2.50
2023-03-25T09:49:11.032Z,2.20
2023-03-25T10:00:02.304Z,2.20
2023-03-25T10:02:43.891Z,4.50
2023-03-25T10:05:51.150Z,3.60
2023-03-25T10:08:41.987Z,2.30
2023-03-25T10:11:21.054Z,2.20
2023-03-25T10:14:05.359Z,3.30
2023-03-25T10:16:45.760Z,2.50
2023-03-25T10:19:17.883Z,3.70
2023-03-25T10:22:02.238Z,3.50
2023-03-25T10:24:54.910Z,2.60
2023-03-25T10:27:36.676Z,5.20
2023-03-25T10:30:14.991Z,3.60
2023-03-25T10:32:48.495Z,4.20
2023-03-25T10:35:31.628Z,2.90
2023-03-25T10:38:13.921Z,2.90
2023-03-25T10:40:50.537Z,3.30
2023-03-25T10:43:28.281Z,3.40
2023-03-25T10:46:19.054Z,4.10
2023-03-25T10:48:51.706Z,2.60
2023-03-25T10:51:24.609Z,3.40
2023-03-25T10:53:54.982Z,2.10
2023-03-25T10:56:47.376Z,3.00
2023-03-25T10:59:28.067Z,2.70
2023-03-25T11:01:57.318Z,1.60
2023-03-25T11:04:35.339Z,3.00
2023-03-25T11:07:16.651Z,2.30
2023-03-25T11:09:47.800Z,3.10
2023-03-25T11:12:27.297Z,3.90
2023-03-25T11:14:59.191Z,2.50
2023-03-25T11:17:29.435Z,1.80
2023-03-25T11:20:05.849Z,1.90
2023-03-25T11:22:36.205Z,2.90
2023-03-25T11:25:06.998Z,2.90
2023-03-25T11:27:51.388Z,2.30
2023-03-25T11:30:24.274Z,2.60
2023-03-25T11:33:10.614Z,2.30
2023-03-25T11:35:44.700Z,2.50
2023-03-25T11:38:19.208Z,2.10
2023-03-25T11:40:57.575Z,2.20
2023-03-25T11:43:28.500Z,1.90
2023-03-25T11:45:57.109Z,1.60
2023-03-25T11:48:30.372Z,1.70
2023-03-25T11:51:00.855Z,2.00
2023-03-25T11:53:36.309Z,1.80
2023-03-25T11:56:07.551Z,2.10
2023-03-25T11:58:37.722Z,1.60
2023-03-25T12:01:20.474Z,2.40
2023-03-25T12:03:49.393Z,1.80
2023-03-25T12:06:23.718Z,2.20
2023-03-25T12:08:56.825Z,2.30
2023-03-25T12:11:42.709Z,1.30
2023-03-25T12:14:15.983Z,2.20
2023-03-25T12:16:59.353Z,0.90
2023-03-25T12:19:47.221Z,1.90
2023-03-25T12:22:42.548Z,2.00
2023-03-25T12:25:34.152Z,2.00
2023-03-25T12:28:15.230Z,2.30
2023-03-25T12:31:07.356Z,1.90
2023-03-25T12:33:58.266Z,2.80
2023-03-25T12:36:41.924Z,3.30
2023-03-25T12:39:44.694Z,2.00
2023-03-25T12:42:52.695Z,2.80
2023-03-25T12:45:23.945Z,3.30
2023-03-25T12:48:26.294Z,3.20
2023-03-25T12:51:13.436Z,3.30
2023-03-25T12:53:53.532Z,2.60
2023-03-25T12:56:28.417Z,3.20
2023-03-25T12:59:21.679Z,3.70
2023-03-25T13:02:29.160Z,3.50
2023-03-25T13:05:11.569Z,2.70
2023-03-25T13:07:44.274Z,3.00
2023-03-25T13:10:23.275Z,2.50
2023-03-25T13:12:56.530Z,3.30
2023-03-25T13:15:28.046Z,4.10
2023-03-25T13:18:12.223Z,2.50
2023-03-25T13:20:49.791Z,2.90
2023-03-25T13:23:22.243Z,3.00
2023-03-25T13:25:53.270Z,3.00
2023-03-25T13:28:30.469Z,3.50
2023-03-25T13:30:59.452Z,3.30
2023-03-25T13:33:30.542Z,3.10
2023-03-25T13:36:09.829Z,2.60
2023-03-25T13:38:59.703Z,2.80
2023-03-25T13:41:48.115Z,2.20
2023-03-25T13:44:31.379Z,2.90
2023-03-25T13:47:09.483Z,2.70
2023-03-25T13:49:42.540Z,2.00
2023-03-25T13:52:11.397Z,2.20
2023-03-25T13:54:50.179Z,3.00
2023-03-25T13:57:45.441Z,1.60
2023-03-25T14:00:21.712Z,2.20
2023-03-25T14:03:03.921Z,2.20
2023-03-25T14:05:54.498Z,3.00
2023-03-25T14:08:28.776Z,1.70
2023-03-25T14:11:16.736Z,2.00
2023-03-25T14:14:01.612Z,3.00
2023-03-25T14:16:34.401Z,2.60
2023-03-25T14:19:04.421Z,2.90
2023-03-25T14:21:39.679Z,2.60
2023-03-25T14:24:10.950Z,3.10
2023-03-25T14:26:51.681Z,2.10
2023-03-25T14:29:20.078Z,3.90
2023-03-25T14:32:14.209Z,2.10
2023-03-25T14:34:51.762Z,3.10
2023-03-25T14:37:21.882Z,2.50
2023-03-25T14:39:50.462Z,3.40
2023-03-25T14:42:30.058Z,3.40
2023-03-25T14:45:32.438Z,2.70
2023-03-25T14:48:01.236Z,5.40
2023-03-25T14:50:33.240Z,4.60
2023-03-25T14:53:06.995Z,5.10
2023-03-25T14:55:44.477Z,3.80
2023-03-25T14:58:23.355Z,7.60
2023-03-25T15:00:55.447Z,4.30
2023-03-25T15:03:37.294Z,3.40
2023-03-25T15:06:07.016Z,4.00
2023-03-25T15:08:41.990Z,3.20
2023-03-25T15:11:17.116Z,4.00
2023-03-25T15:13:56.460Z,4.30
2023-03-25T15:16:33.840Z,3.20
2023-03-25T15:19:06.121Z,4.60
2023-03-25T15:22:01.527Z,3.10
2023-03-25T15:24:31.998Z,3.70
2023-03-25T15:27:02.537Z,3.20
2023-03-25T15:30:02.249Z,3.80
2023-03-25T15:32:44.373Z,4.70
2023-03-25T15:35:51.375Z,5.30
2023-03-25T15:39:02.128Z,6.00
2023-03-25T15:42:03.551Z,5.30
2023-03-25T15:44:46.982Z,4.50
2023-03-25T15:47:38.229Z,5.00
2023-03-25T15:50:45.868Z,6.40
2023-03-25T15:53:41.803Z,6.40
2023-03-25T15:56:34.220Z,5.30
2023-03-25T15:59:19.148Z,4.00
2023-03-25T16:01:48.765Z,5.60
2023-03-25T16:04:21.768Z,4.20
2023-03-25T16:06:52.527Z,3.80
2023-03-25T16:09:27.983Z,3.90
2023-03-25T16:12:01.290Z,3.50
2023-03-25T16:14:31.730Z,5.20
2023-03-25T16:17:06.029Z,4.50
2023-03-25T16:19:39.268Z,3.30
2023-03-25T16:22:28.302Z,3.20
2023-03-25T16:24:58.174Z,3.80
2023-03-25T16:27:37.800Z,3.20
2023-03-25T16:30:32.984Z,2.70
2023-03-25T16:33:10.978Z,2.60
2023-03-25T16:35:41.687Z,2.20
2023-03-25T16:38:18.342Z,2.60
2023-03-25T16:40:50.376Z,3.10
2023-03-25T16:43:21.256Z,2.60
2023-03-25T16:45:51.747Z,3.30
2023-03-25T16:48:27.594Z,2.80
2023-03-25T16:53:25.897Z,3.90
2023-03-25T16:55:58.991Z,3.30
2023-03-25T16:58:27.947Z,3.40
2023-03-25T17:00:56.336Z,5.00
2023-03-25T17:03:45.019Z,4.60
2023-03-25T17:06:40.742Z,6.80
2023-03-25T17:09:18.141Z,4.40
2023-03-25T17:11:50.221Z,6.80
2023-03-25T17:14:23.496Z,5.70
2023-03-25T17:16:52.266Z,6.60
2023-03-25T17:19:21.833Z,4.50
2023-03-25T17:22:18.849Z,4.30
2023-03-25T17:24:58.058Z,4.50
2023-03-25T17:27:36.609Z,5.70
2023-03-25T17:30:42.765Z,4.40
2023-03-25T17:33:35.909Z,6.20
2023-03-25T17:36:09.238Z,5.00
2023-03-25T17:38:48.514Z,5.90
2023-03-25T17:41:20.184Z,5.90
2023-03-25T17:43:50.918Z,5.30
2023-03-25T17:46:30.827Z,4.80
2023-03-25T17:48:59.778Z,4.20
2023-03-25T17:51:29.967Z,5.70
2023-03-25T17:54:01.641Z,6.20
2023-03-25T17:56:32.635Z,5.60
2023-03-25T17:59:13.257Z,4.40
2023-03-25T18:01:42.196Z,4.40
2023-03-25T18:04:14.352Z,6.00
2023-03-25T18:06:44.792Z,5.10
2023-03-25T18:09:18.614Z,3.00
2023-03-25T18:11:48.610Z,0.90
2023-03-25T18:14:17.973Z,1.20
2023-03-25T18:16:52.254Z,2.10
2023-03-25T18:19:23.536Z,1.70
2023-03-25T18:21:52.584Z,2.00
2023-03-25T18:24:23.777Z,2.50
2023-03-25T18:26:52.103Z,2.50
2023-03-25T18:29:24.241Z,2.40
2023-03-25T18:31:53.121Z,3.00
2023-03-25T18:34:23.740Z,2.40
2023-03-25T18:36:53.995Z,1.70
2023-03-25T18:39:24.279Z,2.40
2023-03-25T18:41:53.025Z,2.00
2023-03-25T18:44:22.111Z,2.00
2023-03-25T18:46:52.338Z,1.40
2023-03-25T18:49:22.349Z,1.30
2023-03-25T18:51:51.473Z,1.10
2023-03-25T18:54:20.238Z,1.80
2023-03-25T18:56:48.715Z,1.00
2023-03-25T18:59:22.166Z,0.60
2023-03-25T19:01:50.347Z,1.70
2023-03-25T19:04:19.485Z,1.20
2023-03-25T19:06:53.691Z,1.20
2023-03-25T19:09:23.790Z,1.70
2023-03-25T19:11:52.799Z,1.60
2023-03-25T19:14:21.237Z,1.30
2023-03-25T19:17:01.129Z,1.60
2023-03-25T19:19:31.190Z,2.20
2023-03-25T19:21:59.922Z,2.20
2023-03-25T19:24:28.912Z,2.40
2023-03-25T19:26:59.039Z,1.40
2023-03-25T19:29:28.228Z,0.70
2023-03-25T19:31:56.502Z,1.00
2023-03-25T19:34:24.982Z,2.00
2023-03-25T19:37:02.522Z,1.70
2023-03-25T19:39:31.485Z,2.00
2023-03-25T19:42:00.582Z,1.10
2023-03-25T19:44:29.523Z,2.00
2023-03-25T19:47:00.853Z,1.40
2023-03-25T19:49:39.168Z,1.50
2023-03-25T19:52:08.766Z,1.40
2023-03-25T19:54:40.780Z,1.60
2023-03-25T19:57:09.913Z,1.50
2023-03-25T19:59:45.719Z,1.70
2023-03-25T20:02:15.782Z,0.70
2023-03-25T20:04:44.740Z,1.40
2023-03-25T20:07:20.525Z,0.80
2023-03-25T20:21:33.293Z,1.10
2023-03-25T20:24:02.188Z,1.40
2023-03-25T20:26:30.557Z,2.20
2023-03-25T20:28:59.344Z,1.40
2023-03-25T20:31:28.522Z,1.80
2023-03-25T20:33:56.822Z,1.80
2023-03-25T20:36:25.188Z,2.10
2023-03-25T20:38:57.534Z,1.10
2023-03-25T20:41:29.421Z,1.80
2023-03-25T20:43:57.780Z,2.80
2023-03-25T20:46:28.912Z,1.80
2023-03-25T20:48:58.036Z,1.90
2023-03-25T20:51:26.310Z,2.50
2023-03-25T20:53:55.650Z,1.40
2023-03-25T20:56:24.004Z,1.10
2023-03-25T20:58:55.174Z,2.10
2023-03-25T21:01:23.830Z,2.10
2023-03-25T21:03:53.558Z,1.90
2023-03-25T21:06:26.588Z,2.10
2023-03-25T21:08:59.568Z,2.20
2023-03-25T21:11:32.170Z,1.40
2023-03-25T21:14:00.757Z,1.20
2023-03-25T21:16:31.311Z,2.00
2023-03-25T21:19:03.046Z,2.20
2023-03-25T21:21:31.639Z,1.70
2023-03-25T21:24:00.610Z,1.70
2023-03-25T21:26:36.578Z,2.00
2023-03-25T21:29:05.760Z,2.10
2023-03-25T21:31:34.587Z,1.80
2023-03-25T21:34:03.962Z,1.20
2023-03-25T21:36:32.779Z,1.50
2023-03-25T21:39:04.598Z,1.80
2023-03-25T21:41:34.294Z,2.20
2023-03-25T21:44:03.090Z,2.70
2023-03-25T21:46:33.693Z,1.60
2023-03-25T21:49:03.938Z,1.10
2023-03-25T21:51:32.572Z,1.40
2023-03-25T21:54:01.148Z,1.60
2023-03-25T21:56:31.667Z,1.30
2023-03-25T21:59:02.017Z,1.70
2023-03-25T22:01:32.710Z,1.40
2023-03-25T22:04:01.795Z,1.30
2023-03-25T22:06:31.584Z,2.90
2023-03-25T22:09:05.794Z,2.10
2023-03-25T22:11:35.823Z,1.90
2023-03-25T22:14:05.640Z,1.40
2023-03-25T22:16:36.152Z,1.20
2023-03-25T22:19:04.926Z,1.40
2023-03-25T22:21:37.149Z,3.10
2023-03-25T22:24:07.782Z,1.30
2023-03-25T22:26:39.381Z,1.80
2023-03-25T22:29:09.718Z,2.30
2023-03-25T22:31:40.863Z,2.10
2023-03-25T22:34:12.019Z,2.60
2023-03-25T22:36:46.323Z,2.80
2023-03-25T22:39:15.413Z,1.80
2023-03-25T22:41:45.418Z,1.10
2023-03-25T22:44:17.197Z,2.30
2023-03-25T22:46:49.053Z,1.40
2023-03-25T22:49:18.839Z,2.60
2023-03-25T22:51:48.944Z,1.70
2023-03-25T22:54:17.396Z,1.00
2023-03-25T22:56:46.211Z,2.00
2023-03-25T22:59:15.632Z,1.20
2023-03-25T23:01:46.670Z,1.60
2023-03-25T23:04:15.868Z,1.80
2023-03-25T23:06:51.154Z,2.00
2023-03-25T23:09:41.880Z,1.40
2023-03-25T23:12:23.099Z,3.10
2023-03-25T23:14:54.524Z,3.10
2023-03-25T23:17:24.354Z,2.30
2023-03-25T23:19:52.774Z,1.50
2023-03-25T23:22:25.313Z,1.70
2023-03-25T23:24:54.604Z,2.50
2023-03-25T23:27:24.524Z,2.80
2023-03-25T23:29:53.012Z,3.70
2023-03-25T23:32:21.449Z,3.90
2023-03-25T23:34:50.369Z,3.00
2023-03-25T23:37:19.259Z,3.30
2023-03-25T23:39:47.550Z,1.50
2023-03-25T23:42:16.932Z,2.10
2023-03-25T23:44:46.024Z,2.00
2023-03-25T23:47:14.608Z,3.40
2023-03-25T23:49:44.314Z,2.00
2023-03-25T23:52:13.784Z,2.40
2023-03-25T23:54:44.047Z,2.30
2023-03-25T23:57:14.634Z,2.80
2023-03-25T23:59:45.714Z,3.80
